sensor_id;sensor_type;location;lat;lon;timestamp;temperature;humidity
46890;DHT22;32625;51.080;16.970;2022-09-24T00:01:38;7.20;99.90
46890;DHT22;32625;51.080;16.970;2022-09-24T00:04:08;7.20;99.90
46890;DHT22;32625;51.080;16.970;2022-09-24T00:06:41;7.20;99.90
46890;DHT22;32625;51.080;16.970;2022-09-24T00:09:11;7.20;99.90
46890;DHT22;32625;51.080;16.970;2022-09-24T00:11:39;7.20;99.90
46890;DHT22;32625;51.080;16.970;2022-09-24T00:14:06;7.10;99.90
46890;DHT22;32625;51.080;16.970;2022-09-24T00:16:34;7.10;99.90
46890;DHT22;32625;51.080;16.970;2022-09-24T00:19:03;7.10;99.90
46890;DHT22;32625;51.080;16.970;2022-09-24T00:21:32;7.00;99.90
46890;DHT22;32625;51.080;16.970;2022-09-24T00:24:03;7.10;99.90
46890;DHT22;32625;51.080;16.970;2022-09-24T00:26:30;7.00;99.90
46890;DHT22;32625;51.080;16.970;2022-09-24T00:29:21;7.10;99.90
46890;DHT22;32625;51.080;16.970;2022-09-24T00:31:52;7.10;99.90
46890;DHT22;32625;51.080;16.970;2022-09-24T00:34:19;7.00;99.90
46890;DHT22;32625;51.080;16.970;2022-09-24T00:36:47;6.90;99.90
46890;DHT22;32625;51.080;16.970;2022-09-24T00:39:15;6.90;99.90
46890;DHT22;32625;51.080;16.970;2022-09-24T00:41:42;6.90;99.90
46890;DHT22;32625;51.080;16.970;2022-09-24T00:47:29;6.80;99.90
46890;DHT22;32625;51.080;16.970;2022-09-24T00:50:18;6.80;99.90
46890;DHT22;32625;51.080;16.970;2022-09-24T00:52:54;6.90;99.90
46890;DHT22;32625;51.080;16.970;2022-09-24T00:55:24;6.80;99.90
46890;DHT22;32625;51.080;16.970;2022-09-24T00:57:57;6.80;99.90
46890;DHT22;32625;51.080;16.970;2022-09-24T01:00:25;6.70;99.90
46890;DHT22;32625;51.080;16.970;2022-09-24T01:03:05;6.80;99.90
46890;DHT22;32625;51.080;16.970;2022-09-24T01:05:35;6.90;99.90
46890;DHT22;32625;51.080;16.970;2022-09-24T01:08:03;6.80;99.90
46890;DHT22;32625;51.080;16.970;2022-09-24T01:16:20;6.90;99.90
46890;DHT22;32625;51.080;16.970;2022-09-24T01:21:39;6.90;99.90
46890;DHT22;32625;51.080;16.970;2022-09-24T01:29:28;7.00;99.90
46890;DHT22;32625;51.080;16.970;2022-09-24T01:32:06;7.00;99.90
46890;DHT22;32625;51.080;16.970;2022-09-24T01:34:45;7.10;99.90
46890;DHT22;32625;51.080;16.970;2022-09-24T01:37:16;7.10;99.90
46890;DHT22;32625;51.080;16.970;2022-09-24T01:39:46;7.10;99.90
46890;DHT22;32625;51.080;16.970;2022-09-24T01:42:13;7.10;99.90
46890;DHT22;32625;51.080;16.970;2022-09-24T01:44:41;7.10;99.90
46890;DHT22;32625;51.080;16.970;2022-09-24T01:47:17;7.20;99.90
46890;DHT22;32625;51.080;16.970;2022-09-24T01:49:46;7.20;99.90
46890;DHT22;32625;51.080;16.970;2022-09-24T01:52:17;7.30;99.90
46890;DHT22;32625;51.080;16.970;2022-09-24T01:54:47;7.30;99.90
46890;DHT22;32625;51.080;16.970;2022-09-24T01:57:24;7.40;99.90
46890;DHT22;32625;51.080;16.970;2022-09-24T02:02:45;7.30;99.90
46890;DHT22;32625;51.080;16.970;2022-09-24T02:06:00;7.40;99.90
46890;DHT22;32625;51.080;16.970;2022-09-24T02:10:59;7.30;99.90
46890;DHT22;32625;51.080;16.970;2022-09-24T02:13:37;7.40;99.90
46890;DHT22;32625;51.080;16.970;2022-09-24T02:16:08;7.40;99.90
46890;DHT22;32625;51.080;16.970;2022-09-24T02:18:39;7.40;99.90
46890;DHT22;32625;51.080;16.970;2022-09-24T02:21:15;7.50;99.90
46890;DHT22;32625;51.080;16.970;2022-09-24T02:24:13;7.50;99.90
46890;DHT22;32625;51.080;16.970;2022-09-24T02:26:41;7.40;99.90
46890;DHT22;32625;51.080;16.970;2022-09-24T02:29:08;7.40;99.90
46890;DHT22;32625;51.080;16.970;2022-09-24T02:31:45;7.40;99.90
46890;DHT22;32625;51.080;16.970;2022-09-24T02:34:20;7.40;99.90
46890;DHT22;32625;51.080;16.970;2022-09-24T02:36:50;7.50;99.90
46890;DHT22;32625;51.080;16.970;2022-09-24T02:39:18;7.50;99.90
46890;DHT22;32625;51.080;16.970;2022-09-24T02:41:47;7.60;99.90
46890;DHT22;32625;51.080;16.970;2022-09-24T02:44:15;7.60;99.90
46890;DHT22;32625;51.080;16.970;2022-09-24T02:46:44;7.60;99.90
46890;DHT22;32625;51.080;16.970;2022-09-24T02:49:12;7.60;99.90
46890;DHT22;32625;51.080;16.970;2022-09-24T02:51:41;7.70;99.90
46890;DHT22;32625;51.080;16.970;2022-09-24T02:54:09;7.70;99.90
46890;DHT22;32625;51.080;16.970;2022-09-24T02:56:36;7.80;99.90
46890;DHT22;32625;51.080;16.970;2022-09-24T02:59:04;7.80;99.90
46890;DHT22;32625;51.080;16.970;2022-09-24T03:01:32;7.80;99.90
46890;DHT22;32625;51.080;16.970;2022-09-24T03:04:00;7.80;99.90
46890;DHT22;32625;51.080;16.970;2022-09-24T03:06:27;7.80;99.90
46890;DHT22;32625;51.080;16.970;2022-09-24T03:08:55;7.80;99.90
46890;DHT22;32625;51.080;16.970;2022-09-24T03:11:23;7.90;99.90
46890;DHT22;32625;51.080;16.970;2022-09-24T03:13:52;7.80;99.90
46890;DHT22;32625;51.080;16.970;2022-09-24T03:16:19;7.90;99.90
46890;DHT22;32625;51.080;16.970;2022-09-24T03:18:47;7.90;99.90
46890;DHT22;32625;51.080;16.970;2022-09-24T03:21:17;7.90;99.90
46890;DHT22;32625;51.080;16.970;2022-09-24T03:23:45;7.90;99.90
46890;DHT22;32625;51.080;16.970;2022-09-24T03:26:13;7.90;99.90
46890;DHT22;32625;51.080;16.970;2022-09-24T03:28:40;7.90;99.90
46890;DHT22;32625;51.080;16.970;2022-09-24T03:31:07;7.90;99.90
46890;DHT22;32625;51.080;16.970;2022-09-24T03:33:37;7.80;99.90
46890;DHT22;32625;51.080;16.970;2022-09-24T03:36:08;7.90;99.90
46890;DHT22;32625;51.080;16.970;2022-09-24T03:38:37;8.00;99.90
46890;DHT22;32625;51.080;16.970;2022-09-24T03:41:05;7.90;99.90
46890;DHT22;32625;51.080;16.970;2022-09-24T03:43:33;7.90;99.90
46890;DHT22;32625;51.080;16.970;2022-09-24T03:46:00;8.00;99.90
46890;DHT22;32625;51.080;16.970;2022-09-24T03:48:28;7.90;99.90
46890;DHT22;32625;51.080;16.970;2022-09-24T03:50:56;7.90;99.90
46890;DHT22;32625;51.080;16.970;2022-09-24T03:53:23;7.80;99.90
46890;DHT22;32625;51.080;16.970;2022-09-24T03:55:55;7.80;99.90
46890;DHT22;32625;51.080;16.970;2022-09-24T03:58:23;7.80;99.90
46890;DHT22;32625;51.080;16.970;2022-09-24T04:00:53;7.80;99.90
46890;DHT22;32625;51.080;16.970;2022-09-24T04:03:21;7.70;99.90
46890;DHT22;32625;51.080;16.970;2022-09-24T04:05:49;7.80;99.90
46890;DHT22;32625;51.080;16.970;2022-09-24T04:08:20;7.80;99.90
46890;DHT22;32625;51.080;16.970;2022-09-24T04:10:48;7.80;99.90
46890;DHT22;32625;51.080;16.970;2022-09-24T04:13:17;7.80;99.90
46890;DHT22;32625;51.080;16.970;2022-09-24T04:15:44;7.70;99.90
46890;DHT22;32625;51.080;16.970;2022-09-24T04:18:11;7.70;99.90
46890;DHT22;32625;51.080;16.970;2022-09-24T04:20:39;7.80;99.90
46890;DHT22;32625;51.080;16.970;2022-09-24T04:23:08;7.80;99.90
46890;DHT22;32625;51.080;16.970;2022-09-24T04:25:36;7.80;99.90
46890;DHT22;32625;51.080;16.970;2022-09-24T04:28:05;7.80;99.90
46890;DHT22;32625;51.080;16.970;2022-09-24T04:30:34;7.80;99.90
46890;DHT22;32625;51.080;16.970;2022-09-24T04:33:01;7.80;99.90
46890;DHT22;32625;51.080;16.970;2022-09-24T04:35:30;7.80;99.90
46890;DHT22;32625;51.080;16.970;2022-09-24T04:37:58;7.80;99.90
46890;DHT22;32625;51.080;16.970;2022-09-24T04:40:26;7.80;99.90
46890;DHT22;32625;51.080;16.970;2022-09-24T04:42:54;7.80;99.90
46890;DHT22;32625;51.080;16.970;2022-09-24T04:45:21;7.80;99.90
46890;DHT22;32625;51.080;16.970;2022-09-24T04:47:51;7.80;99.90
46890;DHT22;32625;51.080;16.970;2022-09-24T04:50:27;7.80;99.90
46890;DHT22;32625;51.080;16.970;2022-09-24T04:52:55;7.80;99.90
46890;DHT22;32625;51.080;16.970;2022-09-24T04:55:22;7.80;99.90
46890;DHT22;32625;51.080;16.970;2022-09-24T04:57:50;7.80;99.90
46890;DHT22;32625;51.080;16.970;2022-09-24T05:00:19;7.70;99.90
46890;DHT22;32625;51.080;16.970;2022-09-24T05:02:53;7.80;99.90
46890;DHT22;32625;51.080;16.970;2022-09-24T05:05:21;7.80;99.90
46890;DHT22;32625;51.080;16.970;2022-09-24T05:07:49;7.80;99.90
46890;DHT22;32625;51.080;16.970;2022-09-24T05:10:17;7.80;99.90
46890;DHT22;32625;51.080;16.970;2022-09-24T05:12:44;7.90;99.90
46890;DHT22;32625;51.080;16.970;2022-09-24T05:15:11;7.90;99.90
46890;DHT22;32625;51.080;16.970;2022-09-24T05:17:39;7.90;99.90
46890;DHT22;32625;51.080;16.970;2022-09-24T05:20:07;7.90;99.90
46890;DHT22;32625;51.080;16.970;2022-09-24T05:22:43;8.00;99.90
46890;DHT22;32625;51.080;16.970;2022-09-24T05:25:12;8.00;99.90
46890;DHT22;32625;51.080;16.970;2022-09-24T05:27:47;8.00;99.90
46890;DHT22;32625;51.080;16.970;2022-09-24T05:30:16;8.00;99.90
46890;DHT22;32625;51.080;16.970;2022-09-24T05:32:43;8.00;99.90
46890;DHT22;32625;51.080;16.970;2022-09-24T05:35:10;8.10;99.90
46890;DHT22;32625;51.080;16.970;2022-09-24T05:37:38;8.10;99.90
46890;DHT22;32625;51.080;16.970;2022-09-24T05:40:06;8.10;99.90
46890;DHT22;32625;51.080;16.970;2022-09-24T05:43:01;8.10;99.90
46890;DHT22;32625;51.080;16.970;2022-09-24T05:45:29;8.20;99.90
46890;DHT22;32625;51.080;16.970;2022-09-24T05:47:57;8.20;99.90
46890;DHT22;32625;51.080;16.970;2022-09-24T05:50:27;8.10;99.90
46890;DHT22;32625;51.080;16.970;2022-09-24T05:52:54;8.20;99.90
46890;DHT22;32625;51.080;16.970;2022-09-24T05:55:22;8.20;99.90
46890;DHT22;32625;51.080;16.970;2022-09-24T05:57:49;8.20;99.90
46890;DHT22;32625;51.080;16.970;2022-09-24T06:00:16;8.20;99.90
46890;DHT22;32625;51.080;16.970;2022-09-24T06:02:43;8.30;99.90
46890;DHT22;32625;51.080;16.970;2022-09-24T06:05:10;8.30;99.90
46890;DHT22;32625;51.080;16.970;2022-09-24T06:07:38;8.40;99.90
46890;DHT22;32625;51.080;16.970;2022-09-24T06:10:05;8.50;99.90
46890;DHT22;32625;51.080;16.970;2022-09-24T06:12:36;8.50;99.90
46890;DHT22;32625;51.080;16.970;2022-09-24T06:15:03;8.60;99.90
46890;DHT22;32625;51.080;16.970;2022-09-24T06:17:31;8.60;99.90
46890;DHT22;32625;51.080;16.970;2022-09-24T06:19:58;8.70;99.90
46890;DHT22;32625;51.080;16.970;2022-09-24T06:22:26;8.80;99.90
46890;DHT22;32625;51.080;16.970;2022-09-24T06:24:55;8.80;99.90
46890;DHT22;32625;51.080;16.970;2022-09-24T06:27:22;8.90;99.90
46890;DHT22;32625;51.080;16.970;2022-09-24T06:29:49;8.90;99.90
46890;DHT22;32625;51.080;16.970;2022-09-24T06:32:16;9.00;99.90
46890;DHT22;32625;51.080;16.970;2022-09-24T06:34:45;9.00;99.90
46890;DHT22;32625;51.080;16.970;2022-09-24T06:37:13;9.10;99.90
46890;DHT22;32625;51.080;16.970;2022-09-24T06:39:40;9.10;99.90
46890;DHT22;32625;51.080;16.970;2022-09-24T06:42:08;9.20;99.90
46890;DHT22;32625;51.080;16.970;2022-09-24T06:44:35;9.20;99.90
46890;DHT22;32625;51.080;16.970;2022-09-24T06:47:02;9.30;99.90
46890;DHT22;32625;51.080;16.970;2022-09-24T06:49:29;9.30;99.90
46890;DHT22;32625;51.080;16.970;2022-09-24T06:52:00;9.40;99.90
46890;DHT22;32625;51.080;16.970;2022-09-24T06:54:27;9.40;99.90
46890;DHT22;32625;51.080;16.970;2022-09-24T06:56:54;9.50;99.90
46890;DHT22;32625;51.080;16.970;2022-09-24T06:59:22;9.50;99.90
46890;DHT22;32625;51.080;16.970;2022-09-24T07:01:49;9.60;99.90
46890;DHT22;32625;51.080;16.970;2022-09-24T07:04:16;9.70;99.90
46890;DHT22;32625;51.080;16.970;2022-09-24T07:06:43;9.70;99.90
46890;DHT22;32625;51.080;16.970;2022-09-24T07:09:29;9.80;99.90
46890;DHT22;32625;51.080;16.970;2022-09-24T07:11:57;9.80;99.90
46890;DHT22;32625;51.080;16.970;2022-09-24T07:14:24;9.90;99.90
46890;DHT22;32625;51.080;16.970;2022-09-24T07:16:51;9.90;99.90
46890;DHT22;32625;51.080;16.970;2022-09-24T07:19:19;10.00;99.90
46890;DHT22;32625;51.080;16.970;2022-09-24T07:21:47;10.00;99.90
46890;DHT22;32625;51.080;16.970;2022-09-24T07:24:14;10.10;99.90
46890;DHT22;32625;51.080;16.970;2022-09-24T07:26:41;10.10;99.90
46890;DHT22;32625;51.080;16.970;2022-09-24T07:29:08;10.20;99.90
46890;DHT22;32625;51.080;16.970;2022-09-24T07:31:35;10.30;99.90
46890;DHT22;32625;51.080;16.970;2022-09-24T07:34:08;10.30;99.90
46890;DHT22;32625;51.080;16.970;2022-09-24T07:36:36;10.30;99.90
46890;DHT22;32625;51.080;16.970;2022-09-24T07:39:03;10.40;99.90
46890;DHT22;32625;51.080;16.970;2022-09-24T07:41:31;10.40;99.90
46890;DHT22;32625;51.080;16.970;2022-09-24T07:44:05;10.40;99.90
46890;DHT22;32625;51.080;16.970;2022-09-24T07:46:34;10.50;99.90
46890;DHT22;32625;51.080;16.970;2022-09-24T07:49:01;10.60;99.90
46890;DHT22;32625;51.080;16.970;2022-09-24T07:51:29;10.60;99.90
46890;DHT22;32625;51.080;16.970;2022-09-24T07:53:56;10.70;99.90
46890;DHT22;32625;51.080;16.970;2022-09-24T07:56:24;10.70;99.90
46890;DHT22;32625;51.080;16.970;2022-09-24T07:58:52;10.80;99.90
46890;DHT22;32625;51.080;16.970;2022-09-24T08:01:19;10.80;99.90
46890;DHT22;32625;51.080;16.970;2022-09-24T08:03:47;10.90;99.90
46890;DHT22;32625;51.080;16.970;2022-09-24T08:06:14;10.90;99.90
46890;DHT22;32625;51.080;16.970;2022-09-24T08:08:41;11.00;99.90
46890;DHT22;32625;51.080;16.970;2022-09-24T08:11:11;11.00;99.90
46890;DHT22;32625;51.080;16.970;2022-09-24T08:13:39;11.10;99.90
46890;DHT22;32625;51.080;16.970;2022-09-24T08:16:06;11.10;99.90
46890;DHT22;32625;51.080;16.970;2022-09-24T08:18:33;11.20;99.90
46890;DHT22;32625;51.080;16.970;2022-09-24T08:21:05;11.30;99.90
46890;DHT22;32625;51.080;16.970;2022-09-24T08:23:33;11.40;99.90
46890;DHT22;32625;51.080;16.970;2022-09-24T08:26:01;11.40;99.90
46890;DHT22;32625;51.080;16.970;2022-09-24T08:28:28;11.50;99.90
46890;DHT22;32625;51.080;16.970;2022-09-24T08:30:59;11.50;99.90
46890;DHT22;32625;51.080;16.970;2022-09-24T08:33:28;11.60;99.90
46890;DHT22;32625;51.080;16.970;2022-09-24T08:35:58;11.60;99.90
46890;DHT22;32625;51.080;16.970;2022-09-24T08:38:25;11.70;99.90
46890;DHT22;32625;51.080;16.970;2022-09-24T08:44:04;11.90;99.90
46890;DHT22;32625;51.080;16.970;2022-09-24T08:46:51;11.90;99.90
46890;DHT22;32625;51.080;16.970;2022-09-24T08:49:50;11.90;99.90
46890;DHT22;32625;51.080;16.970;2022-09-24T08:52:48;12.00;99.90
46890;DHT22;32625;51.080;16.970;2022-09-24T08:56:02;12.00;99.90
46890;DHT22;32625;51.080;16.970;2022-09-24T09:01:00;12.10;99.90
46890;DHT22;32625;51.080;16.970;2022-09-24T09:12:40;12.30;99.90
46890;DHT22;32625;51.080;16.970;2022-09-24T09:17:49;12.50;99.90
46890;DHT22;32625;51.080;16.970;2022-09-24T09:20:22;12.50;99.90
46890;DHT22;32625;51.080;16.970;2022-09-24T09:22:51;12.50;99.90
46890;DHT22;32625;51.080;16.970;2022-09-24T09:25:23;12.50;99.90
46890;DHT22;32625;51.080;16.970;2022-09-24T09:28:11;12.60;99.90
46890;DHT22;32625;51.080;16.970;2022-09-24T09:31:06;12.60;99.90
46890;DHT22;32625;51.080;16.970;2022-09-24T09:36:41;12.60;99.90
46890;DHT22;32625;51.080;16.970;2022-09-24T09:42:20;12.70;99.90
46890;DHT22;32625;51.080;16.970;2022-09-24T09:44:50;12.70;99.90
46890;DHT22;32625;51.080;16.970;2022-09-24T09:49:47;12.80;99.90
46890;DHT22;32625;51.080;16.970;2022-09-24T09:52:26;12.80;99.90
46890;DHT22;32625;51.080;16.970;2022-09-24T09:54:54;12.80;99.90
46890;DHT22;32625;51.080;16.970;2022-09-24T09:57:23;12.90;99.90
46890;DHT22;32625;51.080;16.970;2022-09-24T09:59:54;12.90;99.90
46890;DHT22;32625;51.080;16.970;2022-09-24T10:02:30;12.90;99.90
46890;DHT22;32625;51.080;16.970;2022-09-24T10:05:04;13.00;99.90
46890;DHT22;32625;51.080;16.970;2022-09-24T10:07:43;13.00;99.90
46890;DHT22;32625;51.080;16.970;2022-09-24T10:10:20;13.00;99.90
46890;DHT22;32625;51.080;16.970;2022-09-24T10:13:04;13.10;99.90
46890;DHT22;32625;51.080;16.970;2022-09-24T10:15:33;13.10;99.90
46890;DHT22;32625;51.080;16.970;2022-09-24T10:18:01;13.20;99.90
46890;DHT22;32625;51.080;16.970;2022-09-24T10:20:30;13.20;99.90
46890;DHT22;32625;51.080;16.970;2022-09-24T10:23:03;13.20;99.90
46890;DHT22;32625;51.080;16.970;2022-09-24T10:25:33;13.30;99.90
46890;DHT22;32625;51.080;16.970;2022-09-24T10:28:07;13.40;99.90
46890;DHT22;32625;51.080;16.970;2022-09-24T10:31:16;13.60;99.90
46890;DHT22;32625;51.080;16.970;2022-09-24T10:33:47;13.70;99.90
46890;DHT22;32625;51.080;16.970;2022-09-24T10:36:21;13.70;99.90
46890;DHT22;32625;51.080;16.970;2022-09-24T10:38:48;13.60;99.90
46890;DHT22;32625;51.080;16.970;2022-09-24T10:41:28;13.80;99.90
46890;DHT22;32625;51.080;16.970;2022-09-24T10:43:58;13.80;99.90
46890;DHT22;32625;51.080;16.970;2022-09-24T10:46:36;13.80;99.90
46890;DHT22;32625;51.080;16.970;2022-09-24T10:52:18;13.90;99.90
46890;DHT22;32625;51.080;16.970;2022-09-24T10:57:54;14.00;99.90
46890;DHT22;32625;51.080;16.970;2022-09-24T11:00:56;14.10;99.90
46890;DHT22;32625;51.080;16.970;2022-09-24T11:04:13;14.10;99.90
46890;DHT22;32625;51.080;16.970;2022-09-24T11:28:21;14.20;99.90
46890;DHT22;32625;51.080;16.970;2022-09-24T11:34:19;14.30;99.90
46890;DHT22;32625;51.080;16.970;2022-09-24T11:40:06;14.40;99.90
46890;DHT22;32625;51.080;16.970;2022-09-24T11:54:29;14.70;99.90
46890;DHT22;32625;51.080;16.970;2022-09-24T11:57:10;14.70;99.90
46890;DHT22;32625;51.080;16.970;2022-09-24T12:00:04;14.70;99.90
46890;DHT22;32625;51.080;16.970;2022-09-24T12:02:38;14.70;99.90
46890;DHT22;32625;51.080;16.970;2022-09-24T12:05:30;14.70;99.90
46890;DHT22;32625;51.080;16.970;2022-09-24T12:08:01;14.60;99.90
46890;DHT22;32625;51.080;16.970;2022-09-24T12:10:48;14.60;99.90
46890;DHT22;32625;51.080;16.970;2022-09-24T12:16:13;14.50;99.90
46890;DHT22;32625;51.080;16.970;2022-09-24T12:21:33;14.70;99.90
46890;DHT22;32625;51.080;16.970;2022-09-24T12:24:05;14.70;99.90
46890;DHT22;32625;51.080;16.970;2022-09-24T12:26:37;14.70;99.90
46890;DHT22;32625;51.080;16.970;2022-09-24T12:32:42;14.60;99.90
46890;DHT22;32625;51.080;16.970;2022-09-24T12:35:32;14.60;99.90
46890;DHT22;32625;51.080;16.970;2022-09-24T12:38:07;14.70;99.90
46890;DHT22;32625;51.080;16.970;2022-09-24T12:43:41;14.90;99.90
46890;DHT22;32625;51.080;16.970;2022-09-24T12:46:22;14.90;99.90
46890;DHT22;32625;51.080;16.970;2022-09-24T12:48:51;14.70;99.90
46890;DHT22;32625;51.080;16.970;2022-09-24T12:51:20;14.60;99.90
46890;DHT22;32625;51.080;16.970;2022-09-24T12:54:04;14.50;99.90
46890;DHT22;32625;51.080;16.970;2022-09-24T12:56:31;14.50;99.90
46890;DHT22;32625;51.080;16.970;2022-09-24T12:59:00;14.40;99.90
46890;DHT22;32625;51.080;16.970;2022-09-24T13:01:31;14.30;99.90
46890;DHT22;32625;51.080;16.970;2022-09-24T13:06:41;14.20;99.90
46890;DHT22;32625;51.080;16.970;2022-09-24T13:09:33;14.20;99.90
46890;DHT22;32625;51.080;16.970;2022-09-24T13:14:57;14.30;99.90
46890;DHT22;32625;51.080;16.970;2022-09-24T13:17:31;14.40;99.90
46890;DHT22;32625;51.080;16.970;2022-09-24T13:20:04;14.40;99.90
46890;DHT22;32625;51.080;16.970;2022-09-24T13:22:34;14.50;99.90
46890;DHT22;32625;51.080;16.970;2022-09-24T13:27:38;14.70;99.90
46890;DHT22;32625;51.080;16.970;2022-09-24T13:30:22;14.90;99.90
46890;DHT22;32625;51.080;16.970;2022-09-24T13:33:01;15.00;99.90
46890;DHT22;32625;51.080;16.970;2022-09-24T13:42:14;15.00;99.90
46890;DHT22;32625;51.080;16.970;2022-09-24T13:44:51;15.20;99.90
46890;DHT22;32625;51.080;16.970;2022-09-24T13:47:26;15.40;99.90
46890;DHT22;32625;51.080;16.970;2022-09-24T13:50:11;15.50;99.90
46890;DHT22;32625;51.080;16.970;2022-09-24T13:52:47;15.50;99.90
46890;DHT22;32625;51.080;16.970;2022-09-24T13:55:30;15.60;99.90
46890;DHT22;32625;51.080;16.970;2022-09-24T13:57:58;15.60;99.90
46890;DHT22;32625;51.080;16.970;2022-09-24T14:00:27;15.60;99.90
46890;DHT22;32625;51.080;16.970;2022-09-24T14:02:56;15.50;99.90
46890;DHT22;32625;51.080;16.970;2022-09-24T14:05:26;15.50;99.90
46890;DHT22;32625;51.080;16.970;2022-09-24T14:08:02;15.60;96.00
46890;DHT22;32625;51.080;16.970;2022-09-24T14:10:31;15.60;94.30
46890;DHT22;32625;51.080;16.970;2022-09-24T14:13:06;15.40;99.50
46890;DHT22;32625;51.080;16.970;2022-09-24T14:15:36;15.30;99.90
46890;DHT22;32625;51.080;16.970;2022-09-24T14:18:04;15.20;99.90
46890;DHT22;32625;51.080;16.970;2022-09-24T14:20:38;15.00;99.90
46890;DHT22;32625;51.080;16.970;2022-09-24T14:23:05;15.00;99.90
46890;DHT22;32625;51.080;16.970;2022-09-24T14:25:36;14.90;99.90
46890;DHT22;32625;51.080;16.970;2022-09-24T14:28:05;14.80;99.90
46890;DHT22;32625;51.080;16.970;2022-09-24T14:30:35;14.80;99.90
46890;DHT22;32625;51.080;16.970;2022-09-24T14:33:12;14.80;99.90
46890;DHT22;32625;51.080;16.970;2022-09-24T14:35:45;14.70;99.90
46890;DHT22;32625;51.080;16.970;2022-09-24T14:38:24;14.70;99.90
46890;DHT22;32625;51.080;16.970;2022-09-24T14:40:56;14.60;99.90
46890;DHT22;32625;51.080;16.970;2022-09-24T14:43:27;14.50;99.90
46890;DHT22;32625;51.080;16.970;2022-09-24T14:46:04;14.50;99.90
46890;DHT22;32625;51.080;16.970;2022-09-24T14:48:34;14.40;99.90
46890;DHT22;32625;51.080;16.970;2022-09-24T14:51:02;14.40;99.90
46890;DHT22;32625;51.080;16.970;2022-09-24T14:53:34;14.40;99.90
46890;DHT22;32625;51.080;16.970;2022-09-24T14:56:27;14.40;99.90
46890;DHT22;32625;51.080;16.970;2022-09-24T14:58:55;14.40;99.90
46890;DHT22;32625;51.080;16.970;2022-09-24T15:01:28;14.50;99.90
46890;DHT22;32625;51.080;16.970;2022-09-24T15:04:00;14.50;99.90
46890;DHT22;32625;51.080;16.970;2022-09-24T15:06:30;14.50;99.90
46890;DHT22;32625;51.080;16.970;2022-09-24T15:09:03;14.50;99.90
46890;DHT22;32625;51.080;16.970;2022-09-24T15:11:33;14.50;99.90
46890;DHT22;32625;51.080;16.970;2022-09-24T15:14:22;14.60;99.90
46890;DHT22;32625;51.080;16.970;2022-09-24T15:16:54;14.60;99.90
46890;DHT22;32625;51.080;16.970;2022-09-24T15:19:24;14.60;99.90
46890;DHT22;32625;51.080;16.970;2022-09-24T15:21:55;14.60;99.90
46890;DHT22;32625;51.080;16.970;2022-09-24T15:24:24;14.60;99.90
46890;DHT22;32625;51.080;16.970;2022-09-24T15:27:05;14.60;99.90
46890;DHT22;32625;51.080;16.970;2022-09-24T15:29:32;14.50;99.90
46890;DHT22;32625;51.080;16.970;2022-09-24T15:32:00;14.50;99.90
46890;DHT22;32625;51.080;16.970;2022-09-24T15:34:28;14.50;99.90
46890;DHT22;32625;51.080;16.970;2022-09-24T15:36:56;14.40;99.90
46890;DHT22;32625;51.080;16.970;2022-09-24T15:39:27;14.40;99.90
46890;DHT22;32625;51.080;16.970;2022-09-24T15:41:55;14.30;99.90
46890;DHT22;32625;51.080;16.970;2022-09-24T15:44:23;14.30;99.90
46890;DHT22;32625;51.080;16.970;2022-09-24T15:46:57;14.20;99.90
46890;DHT22;32625;51.080;16.970;2022-09-24T15:49:24;14.30;99.90
46890;DHT22;32625;51.080;16.970;2022-09-24T15:52:00;14.20;99.90
46890;DHT22;32625;51.080;16.970;2022-09-24T15:54:27;14.10;99.90
46890;DHT22;32625;51.080;16.970;2022-09-24T15:56:54;14.10;99.90
46890;DHT22;32625;51.080;16.970;2022-09-24T15:59:22;14.00;99.90
46890;DHT22;32625;51.080;16.970;2022-09-24T16:01:51;14.00;99.90
46890;DHT22;32625;51.080;16.970;2022-09-24T16:04:20;13.90;99.90
46890;DHT22;32625;51.080;16.970;2022-09-24T16:06:47;13.80;99.90
46890;DHT22;32625;51.080;16.970;2022-09-24T16:09:15;13.70;99.90
46890;DHT22;32625;51.080;16.970;2022-09-24T16:11:43;13.70;99.90
46890;DHT22;32625;51.080;16.970;2022-09-24T16:14:10;13.60;99.90
46890;DHT22;32625;51.080;16.970;2022-09-24T16:16:40;13.50;99.90
46890;DHT22;32625;51.080;16.970;2022-09-24T16:19:07;13.50;99.90
46890;DHT22;32625;51.080;16.970;2022-09-24T16:21:35;13.50;99.90
46890;DHT22;32625;51.080;16.970;2022-09-24T16:24:02;13.40;99.90
46890;DHT22;32625;51.080;16.970;2022-09-24T16:26:29;13.40;99.90
46890;DHT22;32625;51.080;16.970;2022-09-24T16:28:57;13.40;99.90
46890;DHT22;32625;51.080;16.970;2022-09-24T16:31:24;13.40;99.90
46890;DHT22;32625;51.080;16.970;2022-09-24T16:33:52;13.30;99.90
46890;DHT22;32625;51.080;16.970;2022-09-24T16:36:19;13.30;99.90
46890;DHT22;32625;51.080;16.970;2022-09-24T16:38:49;13.30;99.90
46890;DHT22;32625;51.080;16.970;2022-09-24T16:41:16;13.20;99.90
46890;DHT22;32625;51.080;16.970;2022-09-24T16:43:44;13.10;99.90
46890;DHT22;32625;51.080;16.970;2022-09-24T16:46:11;13.00;99.90
46890;DHT22;32625;51.080;16.970;2022-09-24T16:48:48;13.00;99.90
46890;DHT22;32625;51.080;16.970;2022-09-24T16:51:15;13.00;99.90
46890;DHT22;32625;51.080;16.970;2022-09-24T16:53:43;12.90;99.90
46890;DHT22;32625;51.080;16.970;2022-09-24T16:56:16;12.90;99.90
46890;DHT22;32625;51.080;16.970;2022-09-24T16:58:44;12.80;99.90
46890;DHT22;32625;51.080;16.970;2022-09-24T17:01:14;12.80;99.90
46890;DHT22;32625;51.080;16.970;2022-09-24T17:03:42;12.70;99.90
46890;DHT22;32625;51.080;16.970;2022-09-24T17:06:17;12.70;99.90
46890;DHT22;32625;51.080;16.970;2022-09-24T17:08:45;12.60;99.90
46890;DHT22;32625;51.080;16.970;2022-09-24T17:11:31;12.60;99.90
46890;DHT22;32625;51.080;16.970;2022-09-24T17:13:58;12.50;99.90
46890;DHT22;32625;51.080;16.970;2022-09-24T17:16:26;12.40;99.90
46890;DHT22;32625;51.080;16.970;2022-09-24T17:18:53;12.40;99.90
46890;DHT22;32625;51.080;16.970;2022-09-24T17:21:22;12.30;99.90
46890;DHT22;32625;51.080;16.970;2022-09-24T17:23:49;12.30;99.90
46890;DHT22;32625;51.080;16.970;2022-09-24T17:26:18;12.20;99.90
46890;DHT22;32625;51.080;16.970;2022-09-24T17:28:47;12.20;99.90
46890;DHT22;32625;51.080;16.970;2022-09-24T17:31:18;12.10;99.90
46890;DHT22;32625;51.080;16.970;2022-09-24T17:34:02;12.00;99.90
46890;DHT22;32625;51.080;16.970;2022-09-24T17:36:32;11.90;99.90
46890;DHT22;32625;51.080;16.970;2022-09-24T17:39:00;11.90;99.90
46890;DHT22;32625;51.080;16.970;2022-09-24T17:41:28;11.90;99.90
46890;DHT22;32625;51.080;16.970;2022-09-24T17:43:56;11.90;99.90
46890;DHT22;32625;51.080;16.970;2022-09-24T17:46:31;11.90;99.90
46890;DHT22;32625;51.080;16.970;2022-09-24T17:48:59;11.90;99.90
46890;DHT22;32625;51.080;16.970;2022-09-24T17:51:29;11.80;99.90